Meteo Giornale » Osservazioni meteo Bulgaria » Sofia
ore: 23:30 - Osservazioni Meteo Sofia
Lat. 42° 39' N Lon. 23° 23' E Alt. 586 metri s.l.m.
22 °C
Sereno
Temp. 24 Ore
17 °C
33 °C
Est
13 Km/h
Dew point 12 °C
Umidità 53 %
Visibilità 10 Km
Il sole sorge alle ore 06:51
Il sole tramonta alle ore 20:01
| Data e Ora | Cielo e Fenomeni | T °C | DP °C | Um. % | Pres. hPa | Vis. km | Vento km/h | |
|---|---|---|---|---|---|---|---|---|
| Ieri h: 23:30 | Sereno | 22 | 12 | 53 | 1018 | 10 | E 13 | |
| Ieri h: 23:00 | Sereno | 23 | 13 | 53 | 1017 | 10 | SE 14.8 | |
| Ieri h: 22:30 | Sereno | 24 | 13 | 50 | 1017 | 10 | E/SE 11.1 | |
| Ieri h: 22:00 | Sereno | 23 | 13 | 53 | 1017 | 10 | SE 9.3 | |
| Ieri h: 21:30 | Sereno | 26 | 13 | 44 | 1017 | 10 | SE 11.1 | |
| Ieri h: 21:00 | Sereno | 25 | 13 | 47 | 1017 | 10 | E/SE 13 | |
| Ieri h: 20:30 | Sereno | 27 | 13 | 42 | 1016 | 10 | E 11.1 | |
| Ieri h: 20:00 | Poco Nuvoloso | 29 | 12 | 35 | 1016 | 10 | E 13 | |
| Ieri h: 19:30 | Sereno | 30 | 12 | 33 | 1016 | 10 | E/NE 13 | |
| Ieri h: 19:00 | Sereno | 31 | 12 | 31 | 1016 | 10 | E/NE 11.1 | |
| Ieri h: 18:30 | Sereno | 31 | 12 | 31 | 1016 | 10 | N/NE 16.7 | |
| Ieri h: 18:00 | Poco Nuvoloso | 31 | 13 | 33 | 1016 | 10 | N/NE 14.8 | |
| Ieri h: 17:30 | Nuvoloso | 33 | 12 | 27 | 1016 | 10 | N 7.4 | |
| Ieri h: 17:00 | Nuvoloso | 33 | 12 | 27 | 1016 | 10 | N 5.5 | |
| Ieri h: 16:30 | Nuvoloso | 33 | 12 | 27 | 1016 | 10 | SO 7.4 | |
| Ieri h: 16:00 | Nuvoloso | 33 | 13 | 29 | 1016 | 10 | SE 9.3 | |
| Ieri h: 15:30 | Poco Nuvoloso | 33 | 13 | 29 | 1017 | 10 | N 5.5 | |
| Ieri h: 15:00 | Poco Nuvoloso | 32 | 12 | 29 | 1017 | 10 | N 7.4 | |
| Ieri h: 14:30 | Sereno | 32 | 12 | 29 | 1017 | 10 | N 5.5 | |
| Ieri h: 14:00 | Sereno | 31 | 13 | 33 | 1018 | 10 | N 7.4 | |
| Ieri h: 13:30 | Sereno | 30 | 13 | 35 | 1018 | 10 | SE 9.3 | |
| Ieri h: 13:00 | Sereno | 29 | 13 | 37 | 1018 | 10 | N 9.3 | |
| Ieri h: 12:30 | Sereno | 28 | 13 | 39 | 1019 | 10 | N 5.5 | |
| Ieri h: 12:00 | Sereno | 28 | 12 | 37 | 1019 | 10 | N 5.5 | |
| Ieri h: 11:30 | Sereno | 26 | 12 | 41 | 1019 | 10 | N 7.4 | |
| Ieri h: 11:00 | Sereno | 26 | 12 | 41 | 1019 | 10 | N 9.3 | |
| Ieri h: 10:30 | Sereno | 25 | 12 | 44 | 1019 | 10 | N 7.4 | |
| Ieri h: 10:00 | Sereno | 24 | 12 | 47 | 1019 | 10 | E/SE 13 | |
| Ieri h: 09:30 | Sereno | 23 | 12 | 49 | 1019 | 10 | E 13 | |
| Ieri h: 09:00 | Sereno | 21 | 13 | 60 | 1020 | 10 | SE 7.4 | |
| Ieri h: 08:30 | Sereno | 19 | 12 | 63 | 1020 | 10 | E/SE 11.1 | |
| Ieri h: 08:00 | Sereno | 18 | 13 | 72 | 1020 | 10 | SE 11.1 | |
| Ieri h: 07:30 | Sereno | 18 | 12 | 67 | 1020 | 10 | SE 7.4 | |
| Ieri h: 07:00 | Sereno | 17 | 12 | 72 | 1020 | 10 | SE 9.3 | |
| Ieri h: 06:30 | Sereno | 17 | 12 | 72 | 1019 | 10 | SE 9.3 | |
| Ieri h: 06:00 | Sereno | 17 | 12 | 72 | 1019 | 10 | E 11.1 | |
| Ieri h: 05:30 | Sereno | 17 | 12 | 72 | 1019 | 10 | SE 7.4 | |
| Ieri h: 05:00 | Sereno | 17 | 12 | 72 | 1019 | 10 | E/SE 9.3 | |
| Ieri h: 04:30 | Sereno | 18 | 12 | 67 | 1019 | 10 | SE 9.3 | |
| Ieri h: 04:00 | Sereno | 18 | 12 | 67 | 1019 | 10 | E 7.4 | |
| Ieri h: 03:30 | Sereno | 20 | 13 | 64 | 1019 | 10 | E/SE 11.1 | |
| Ieri h: 03:00 | Sereno | 19 | 13 | 68 | 1019 | 10 | E/SE 13 | |
| Ieri h: 02:30 | Sereno | 19 | 14 | 72 | 1019 | 10 | E/SE 16.7 | |
| Ieri h: 02:00 | Sereno | 19 | 13 | 68 | 1019 | 10 | SE 7.4 | |
| Ieri h: 01:30 | Sereno | 19 | 14 | 72 | 1019 | 10 | SE 9.3 | |
| Ieri h: 01:00 | Sereno | 20 | 14 | 68 | 1019 | 10 | E/SE 13 | |



